sensor_id;sensor_type;location;lat;lon;timestamp;P1;durP1;ratioP1;P2;durP2;ratioP2
25948;SDS011;13961;51.178;4.448;2023-02-03T00:01:01;9.65;;;2.63;;
25948;SDS011;13961;51.178;4.448;2023-02-03T00:03:27;10.82;;;2.30;;
25948;SDS011;13961;51.178;4.448;2023-02-03T00:05:53;8.52;;;2.70;;
25948;SDS011;13961;51.178;4.448;2023-02-03T00:08:19;11.07;;;2.60;;
25948;SDS011;13961;51.178;4.448;2023-02-03T00:10:45;3.72;;;2.25;;
25948;SDS011;13961;51.178;4.448;2023-02-03T00:13:11;6.88;;;2.67;;
25948;SDS011;13961;51.178;4.448;2023-02-03T00:15:38;11.73;;;2.22;;
25948;SDS011;13961;51.178;4.448;2023-02-03T00:18:03;7.55;;;2.38;;
25948;SDS011;13961;51.178;4.448;2023-02-03T00:20:29;8.55;;;2.58;;
25948;SDS011;13961;51.178;4.448;2023-02-03T00:23:01;8.68;;;2.65;;
25948;SDS011;13961;51.178;4.448;2023-02-03T00:25:29;10.45;;;2.92;;
25948;SDS011;13961;51.178;4.448;2023-02-03T00:27:54;11.52;;;2.80;;
25948;SDS011;13961;51.178;4.448;2023-02-03T00:30:20;11.18;;;2.72;;
25948;SDS011;13961;51.178;4.448;2023-02-03T00:32:46;7.63;;;2.50;;
25948;SDS011;13961;51.178;4.448;2023-02-03T00:35:12;8.60;;;2.63;;
25948;SDS011;13961;51.178;4.448;2023-02-03T00:37:37;9.85;;;2.80;;
25948;SDS011;13961;51.178;4.448;2023-02-03T00:40:03;11.80;;;2.78;;
25948;SDS011;13961;51.178;4.448;2023-02-03T00:42:29;7.85;;;2.53;;
25948;SDS011;13961;51.178;4.448;2023-02-03T00:44:55;12.60;;;2.70;;
25948;SDS011;13961;51.178;4.448;2023-02-03T00:47:20;7.05;;;2.80;;
25948;SDS011;13961;51.178;4.448;2023-02-03T00:49:46;12.20;;;2.85;;
25948;SDS011;13961;51.178;4.448;2023-02-03T00:52:12;9.75;;;2.78;;
25948;SDS011;13961;51.178;4.448;2023-02-03T00:54:38;4.22;;;2.30;;
25948;SDS011;13961;51.178;4.448;2023-02-03T00:57:03;10.10;;;3.45;;
25948;SDS011;13961;51.178;4.448;2023-02-03T00:59:29;11.32;;;2.83;;
25948;SDS011;13961;51.178;4.448;2023-02-03T01:01:55;7.32;;;2.55;;
25948;SDS011;13961;51.178;4.448;2023-02-03T01:04:20;7.15;;;2.47;;
25948;SDS011;13961;51.178;4.448;2023-02-03T01:06:46;6.90;;;2.45;;
25948;SDS011;13961;51.178;4.448;2023-02-03T01:09:11;7.95;;;2.50;;
25948;SDS011;13961;51.178;4.448;2023-02-03T01:11:38;5.35;;;2.60;;
25948;SDS011;13961;51.178;4.448;2023-02-03T01:14:04;3.63;;;2.05;;
25948;SDS011;13961;51.178;4.448;2023-02-03T01:16:30;7.47;;;2.35;;
25948;SDS011;13961;51.178;4.448;2023-02-03T01:19:00;11.32;;;2.50;;
25948;SDS011;13961;51.178;4.448;2023-02-03T01:21:26;8.85;;;2.60;;
25948;SDS011;13961;51.178;4.448;2023-02-03T01:23:52;11.43;;;2.90;;
25948;SDS011;13961;51.178;4.448;2023-02-03T01:26:20;8.98;;;2.30;;
25948;SDS011;13961;51.178;4.448;2023-02-03T01:28:54;9.35;;;2.40;;
25948;SDS011;13961;51.178;4.448;2023-02-03T01:31:26;6.88;;;2.20;;
25948;SDS011;13961;51.178;4.448;2023-02-03T01:33:58;10.98;;;2.85;;
25948;SDS011;13961;51.178;4.448;2023-02-03T01:36:25;9.90;;;2.33;;
25948;SDS011;13961;51.178;4.448;2023-02-03T01:38:52;6.35;;;2.08;;
25948;SDS011;13961;51.178;4.448;2023-02-03T01:41:20;6.82;;;2.05;;
25948;SDS011;13961;51.178;4.448;2023-02-03T01:43:50;8.63;;;2.20;;
25948;SDS011;13961;51.178;4.448;2023-02-03T01:49:03;7.80;;;2.47;;
25948;SDS011;13961;51.178;4.448;2023-02-03T01:51:41;6.18;;;2.03;;
25948;SDS011;13961;51.178;4.448;2023-02-03T01:54:11;6.13;;;2.00;;
25948;SDS011;13961;51.178;4.448;2023-02-03T01:56:44;5.65;;;2.10;;
25948;SDS011;13961;51.178;4.448;2023-02-03T01:59:15;9.18;;;2.47;;
25948;SDS011;13961;51.178;4.448;2023-02-03T02:01:43;5.60;;;2.13;;
25948;SDS011;13961;51.178;4.448;2023-02-03T02:04:09;4.50;;;2.00;;
25948;SDS011;13961;51.178;4.448;2023-02-03T02:06:35;8.55;;;2.17;;
25948;SDS011;13961;51.178;4.448;2023-02-03T02:09:01;9.02;;;1.98;;
25948;SDS011;13961;51.178;4.448;2023-02-03T02:11:27;3.35;;;1.83;;
25948;SDS011;13961;51.178;4.448;2023-02-03T02:13:54;5.95;;;1.75;;
25948;SDS011;13961;51.178;4.448;2023-02-03T02:19:28;6.43;;;1.60;;
25948;SDS011;13961;51.178;4.448;2023-02-03T02:24:52;6.82;;;1.67;;
25948;SDS011;13961;51.178;4.448;2023-02-03T02:33:01;7.00;;;1.65;;
25948;SDS011;13961;51.178;4.448;2023-02-03T02:41:13;8.75;;;2.00;;
25948;SDS011;13961;51.178;4.448;2023-02-03T02:43:43;7.93;;;1.70;;
25948;SDS011;13961;51.178;4.448;2023-02-03T02:46:23;5.10;;;1.50;;
25948;SDS011;13961;51.178;4.448;2023-02-03T02:49:15;7.93;;;1.90;;
25948;SDS011;13961;51.178;4.448;2023-02-03T02:51:40;4.90;;;1.50;;
25948;SDS011;13961;51.178;4.448;2023-02-03T02:54:10;9.02;;;2.10;;
25948;SDS011;13961;51.178;4.448;2023-02-03T02:56:39;7.60;;;1.60;;
25948;SDS011;13961;51.178;4.448;2023-02-03T02:59:07;5.55;;;1.65;;
25948;SDS011;13961;51.178;4.448;2023-02-03T03:01:34;9.00;;;1.50;;
25948;SDS011;13961;51.178;4.448;2023-02-03T03:04:00;2.88;;;1.48;;
25948;SDS011;13961;51.178;4.448;2023-02-03T03:06:31;6.65;;;1.45;;
25948;SDS011;13961;51.178;4.448;2023-02-03T03:09:04;6.53;;;1.60;;
25948;SDS011;13961;51.178;4.448;2023-02-03T03:11:40;7.65;;;1.65;;
25948;SDS011;13961;51.178;4.448;2023-02-03T03:14:11;6.20;;;1.20;;
25948;SDS011;13961;51.178;4.448;2023-02-03T03:16:43;3.75;;;1.10;;
25948;SDS011;13961;51.178;4.448;2023-02-03T03:19:14;6.75;;;1.50;;
25948;SDS011;13961;51.178;4.448;2023-02-03T03:21:44;11.23;;;1.95;;
25948;SDS011;13961;51.178;4.448;2023-02-03T03:24:14;5.05;;;1.85;;
25948;SDS011;13961;51.178;4.448;2023-02-03T03:29:30;5.22;;;1.30;;
25948;SDS011;13961;51.178;4.448;2023-02-03T03:32:01;8.75;;;1.60;;
25948;SDS011;13961;51.178;4.448;2023-02-03T03:34:27;4.88;;;1.48;;
25948;SDS011;13961;51.178;4.448;2023-02-03T03:39:56;7.93;;;1.45;;
25948;SDS011;13961;51.178;4.448;2023-02-03T03:47:48;5.95;;;1.50;;
25948;SDS011;13961;51.178;4.448;2023-02-03T03:50:22;8.07;;;1.55;;
25948;SDS011;13961;51.178;4.448;2023-02-03T03:52:52;4.78;;;1.55;;
25948;SDS011;13961;51.178;4.448;2023-02-03T03:55:19;6.05;;;1.80;;
25948;SDS011;13961;51.178;4.448;2023-02-03T04:00:23;6.10;;;1.33;;
25948;SDS011;13961;51.178;4.448;2023-02-03T04:02:53;6.00;;;1.40;;
25948;SDS011;13961;51.178;4.448;2023-02-03T04:05:21;6.35;;;1.10;;
25948;SDS011;13961;51.178;4.448;2023-02-03T04:07:47;4.53;;;1.33;;
25948;SDS011;13961;51.178;4.448;2023-02-03T04:10:32;5.80;;;1.10;;
25948;SDS011;13961;51.178;4.448;2023-02-03T04:13:00;2.30;;;1.05;;
25948;SDS011;13961;51.178;4.448;2023-02-03T04:15:27;8.85;;;1.63;;
25948;SDS011;13961;51.178;4.448;2023-02-03T04:17:53;6.68;;;1.40;;
25948;SDS011;13961;51.178;4.448;2023-02-03T04:20:21;6.65;;;1.85;;
25948;SDS011;13961;51.178;4.448;2023-02-03T04:22:47;3.95;;;1.02;;
25948;SDS011;13961;51.178;4.448;2023-02-03T04:25:13;7.13;;;1.20;;
25948;SDS011;13961;51.178;4.448;2023-02-03T04:27:39;4.93;;;1.10;;
25948;SDS011;13961;51.178;4.448;2023-02-03T04:30:04;7.22;;;1.20;;
25948;SDS011;13961;51.178;4.448;2023-02-03T04:32:31;6.85;;;1.25;;
25948;SDS011;13961;51.178;4.448;2023-02-03T04:34:57;4.63;;;1.02;;
25948;SDS011;13961;51.178;4.448;2023-02-03T04:37:23;4.18;;;1.17;;
25948;SDS011;13961;51.178;4.448;2023-02-03T04:39:51;5.80;;;1.13;;
25948;SDS011;13961;51.178;4.448;2023-02-03T04:42:17;7.60;;;1.40;;
25948;SDS011;13961;51.178;4.448;2023-02-03T04:44:43;7.43;;;1.10;;
25948;SDS011;13961;51.178;4.448;2023-02-03T04:47:09;3.65;;;1.00;;
25948;SDS011;13961;51.178;4.448;2023-02-03T04:49:34;4.18;;;1.02;;
25948;SDS011;13961;51.178;4.448;2023-02-03T04:52:00;4.60;;;0.90;;
25948;SDS011;13961;51.178;4.448;2023-02-03T04:54:26;3.72;;;1.10;;
25948;SDS011;13961;51.178;4.448;2023-02-03T04:56:51;11.38;;;2.03;;
25948;SDS011;13961;51.178;4.448;2023-02-03T04:59:17;4.60;;;1.38;;
25948;SDS011;13961;51.178;4.448;2023-02-03T05:01:43;4.68;;;1.10;;
25948;SDS011;13961;51.178;4.448;2023-02-03T05:04:08;4.00;;;1.15;;
25948;SDS011;13961;51.178;4.448;2023-02-03T05:06:34;4.88;;;1.27;;
25948;SDS011;13961;51.178;4.448;2023-02-03T05:09:00;7.00;;;1.77;;
25948;SDS011;13961;51.178;4.448;2023-02-03T05:11:26;5.40;;;1.00;;
25948;SDS011;13961;51.178;4.448;2023-02-03T05:13:52;4.70;;;1.10;;
25948;SDS011;13961;51.178;4.448;2023-02-03T05:16:18;4.95;;;1.17;;
25948;SDS011;13961;51.178;4.448;2023-02-03T05:18:43;4.20;;;1.00;;
25948;SDS011;13961;51.178;4.448;2023-02-03T05:21:09;6.53;;;1.42;;
25948;SDS011;13961;51.178;4.448;2023-02-03T05:23:35;4.13;;;1.25;;
25948;SDS011;13961;51.178;4.448;2023-02-03T05:26:01;4.75;;;1.23;;
25948;SDS011;13961;51.178;4.448;2023-02-03T05:28:26;4.93;;;1.20;;
25948;SDS011;13961;51.178;4.448;2023-02-03T05:30:52;3.45;;;1.10;;
25948;SDS011;13961;51.178;4.448;2023-02-03T05:33:18;2.50;;;1.20;;
25948;SDS011;13961;51.178;4.448;2023-02-03T05:35:43;5.45;;;1.77;;
25948;SDS011;13961;51.178;4.448;2023-02-03T05:38:09;5.10;;;1.05;;
25948;SDS011;13961;51.178;4.448;2023-02-03T05:40:35;8.10;;;1.70;;
25948;SDS011;13961;51.178;4.448;2023-02-03T05:43:19;8.30;;;1.63;;
25948;SDS011;13961;51.178;4.448;2023-02-03T05:45:45;5.30;;;1.23;;
25948;SDS011;13961;51.178;4.448;2023-02-03T05:48:11;4.03;;;1.00;;
25948;SDS011;13961;51.178;4.448;2023-02-03T05:50:36;4.80;;;1.48;;
25948;SDS011;13961;51.178;4.448;2023-02-03T05:53:03;3.85;;;1.13;;
25948;SDS011;13961;51.178;4.448;2023-02-03T05:55:30;4.03;;;1.38;;
25948;SDS011;13961;51.178;4.448;2023-02-03T05:57:57;6.55;;;1.10;;
25948;SDS011;13961;51.178;4.448;2023-02-03T06:00:24;4.72;;;1.20;;
25948;SDS011;13961;51.178;4.448;2023-02-03T06:02:51;4.18;;;0.90;;
25948;SDS011;13961;51.178;4.448;2023-02-03T06:05:17;7.15;;;1.35;;
25948;SDS011;13961;51.178;4.448;2023-02-03T06:07:42;2.50;;;1.02;;
25948;SDS011;13961;51.178;4.448;2023-02-03T06:10:08;4.75;;;1.50;;
25948;SDS011;13961;51.178;4.448;2023-02-03T06:12:34;3.03;;;1.05;;
25948;SDS011;13961;51.178;4.448;2023-02-03T06:15:01;5.07;;;0.80;;
25948;SDS011;13961;51.178;4.448;2023-02-03T06:17:27;1.38;;;0.90;;
25948;SDS011;13961;51.178;4.448;2023-02-03T06:19:53;4.28;;;1.00;;
25948;SDS011;13961;51.178;4.448;2023-02-03T06:22:19;7.97;;;1.73;;
25948;SDS011;13961;51.178;4.448;2023-02-03T06:24:44;3.35;;;0.82;;
25948;SDS011;13961;51.178;4.448;2023-02-03T06:27:12;4.45;;;1.10;;
25948;SDS011;13961;51.178;4.448;2023-02-03T06:29:38;5.30;;;1.40;;
25948;SDS011;13961;51.178;4.448;2023-02-03T06:32:05;5.97;;;1.00;;
25948;SDS011;13961;51.178;4.448;2023-02-03T06:34:31;3.35;;;0.93;;
25948;SDS011;13961;51.178;4.448;2023-02-03T06:36:57;6.05;;;1.20;;
25948;SDS011;13961;51.178;4.448;2023-02-03T06:39:23;2.95;;;1.10;;
25948;SDS011;13961;51.178;4.448;2023-02-03T06:41:49;4.00;;;1.15;;
25948;SDS011;13961;51.178;4.448;2023-02-03T06:44:16;4.32;;;1.10;;
25948;SDS011;13961;51.178;4.448;2023-02-03T06:46:42;2.58;;;0.90;;
25948;SDS011;13961;51.178;4.448;2023-02-03T06:49:07;4.40;;;0.90;;
25948;SDS011;13961;51.178;4.448;2023-02-03T06:51:33;1.30;;;0.70;;
25948;SDS011;13961;51.178;4.448;2023-02-03T06:53:59;2.58;;;0.80;;
25948;SDS011;13961;51.178;4.448;2023-02-03T06:56:25;2.80;;;0.95;;
25948;SDS011;13961;51.178;4.448;2023-02-03T06:58:50;3.33;;;0.90;;
25948;SDS011;13961;51.178;4.448;2023-02-03T07:01:16;2.45;;;0.85;;
25948;SDS011;13961;51.178;4.448;2023-02-03T07:03:42;3.35;;;0.65;;
25948;SDS011;13961;51.178;4.448;2023-02-03T07:06:08;4.38;;;1.00;;
25948;SDS011;13961;51.178;4.448;2023-02-03T07:08:34;3.70;;;1.10;;
25948;SDS011;13961;51.178;4.448;2023-02-03T07:10:59;5.22;;;0.70;;
25948;SDS011;13961;51.178;4.448;2023-02-03T07:13:25;2.35;;;1.00;;
25948;SDS011;13961;51.178;4.448;2023-02-03T07:15:51;1.13;;;0.70;;
25948;SDS011;13961;51.178;4.448;2023-02-03T07:18:16;3.47;;;0.82;;
25948;SDS011;13961;51.178;4.448;2023-02-03T07:20:43;5.63;;;0.88;;
25948;SDS011;13961;51.178;4.448;2023-02-03T07:23:08;3.78;;;0.88;;
25948;SDS011;13961;51.178;4.448;2023-02-03T07:25:34;6.68;;;1.20;;
25948;SDS011;13961;51.178;4.448;2023-02-03T07:28:00;3.67;;;0.90;;
25948;SDS011;13961;51.178;4.448;2023-02-03T07:30:25;2.03;;;0.80;;
25948;SDS011;13961;51.178;4.448;2023-02-03T07:32:51;5.82;;;1.38;;
25948;SDS011;13961;51.178;4.448;2023-02-03T07:35:18;6.30;;;1.38;;
25948;SDS011;13961;51.178;4.448;2023-02-03T07:37:44;3.42;;;1.00;;
25948;SDS011;13961;51.178;4.448;2023-02-03T07:40:10;4.55;;;1.50;;
25948;SDS011;13961;51.178;4.448;2023-02-03T07:42:40;8.13;;;1.40;;
25948;SDS011;13961;51.178;4.448;2023-02-03T07:45:07;5.72;;;1.00;;
25948;SDS011;13961;51.178;4.448;2023-02-03T07:47:34;5.97;;;1.60;;
25948;SDS011;13961;51.178;4.448;2023-02-03T07:49:59;6.47;;;1.30;;
25948;SDS011;13961;51.178;4.448;2023-02-03T07:52:25;6.25;;;1.30;;
25948;SDS011;13961;51.178;4.448;2023-02-03T07:54:50;5.20;;;0.90;;
25948;SDS011;13961;51.178;4.448;2023-02-03T07:57:16;7.65;;;1.13;;
25948;SDS011;13961;51.178;4.448;2023-02-03T07:59:42;6.03;;;1.38;;
25948;SDS011;13961;51.178;4.448;2023-02-03T08:02:08;4.05;;;1.00;;
25948;SDS011;13961;51.178;4.448;2023-02-03T08:04:35;4.72;;;1.83;;
25948;SDS011;13961;51.178;4.448;2023-02-03T08:07:01;2.88;;;1.02;;
25948;SDS011;13961;51.178;4.448;2023-02-03T08:09:27;8.07;;;1.45;;
25948;SDS011;13961;51.178;4.448;2023-02-03T08:11:53;5.28;;;1.20;;
25948;SDS011;13961;51.178;4.448;2023-02-03T08:14:18;6.05;;;1.38;;
25948;SDS011;13961;51.178;4.448;2023-02-03T08:16:44;4.82;;;1.20;;
25948;SDS011;13961;51.178;4.448;2023-02-03T08:19:10;6.43;;;1.45;;
25948;SDS011;13961;51.178;4.448;2023-02-03T08:21:36;4.22;;;1.30;;
25948;SDS011;13961;51.178;4.448;2023-02-03T08:24:03;3.78;;;1.50;;
25948;SDS011;13961;51.178;4.448;2023-02-03T08:26:29;6.95;;;1.50;;
25948;SDS011;13961;51.178;4.448;2023-02-03T08:28:55;3.85;;;1.88;;
25948;SDS011;13961;51.178;4.448;2023-02-03T08:31:20;3.85;;;1.25;;
25948;SDS011;13961;51.178;4.448;2023-02-03T08:33:46;4.65;;;1.23;;
25948;SDS011;13961;51.178;4.448;2023-02-03T08:36:12;3.53;;;1.20;;
25948;SDS011;13961;51.178;4.448;2023-02-03T08:38:38;2.92;;;1.23;;
25948;SDS011;13961;51.178;4.448;2023-02-03T08:41:12;3.60;;;1.23;;
25948;SDS011;13961;51.178;4.448;2023-02-03T08:43:40;4.07;;;1.38;;
25948;SDS011;13961;51.178;4.448;2023-02-03T08:46:06;2.78;;;1.33;;
25948;SDS011;13961;51.178;4.448;2023-02-03T08:48:34;9.63;;;1.90;;
25948;SDS011;13961;51.178;4.448;2023-02-03T08:51:13;2.80;;;1.63;;
25948;SDS011;13961;51.178;4.448;2023-02-03T08:53:40;5.97;;;1.90;;
25948;SDS011;13961;51.178;4.448;2023-02-03T08:56:06;3.88;;;1.58;;
25948;SDS011;13961;51.178;4.448;2023-02-03T08:58:34;4.20;;;1.80;;
25948;SDS011;13961;51.178;4.448;2023-02-03T09:01:11;8.07;;;2.00;;
25948;SDS011;13961;51.178;4.448;2023-02-03T09:03:38;6.50;;;1.95;;
25948;SDS011;13961;51.178;4.448;2023-02-03T09:06:05;6.93;;;1.73;;
25948;SDS011;13961;51.178;4.448;2023-02-03T09:08:32;5.95;;;1.58;;
25948;SDS011;13961;51.178;4.448;2023-02-03T09:10:58;5.40;;;1.38;;
25948;SDS011;13961;51.178;4.448;2023-02-03T09:13:23;9.57;;;1.90;;
25948;SDS011;13961;51.178;4.448;2023-02-03T09:15:49;6.50;;;1.63;;
25948;SDS011;13961;51.178;4.448;2023-02-03T09:18:15;7.78;;;1.70;;
25948;SDS011;13961;51.178;4.448;2023-02-03T09:20:41;6.15;;;1.42;;
25948;SDS011;13961;51.178;4.448;2023-02-03T09:23:08;4.88;;;1.75;;
25948;SDS011;13961;51.178;4.448;2023-02-03T09:25:33;9.25;;;1.75;;
25948;SDS011;13961;51.178;4.448;2023-02-03T09:28:02;8.63;;;1.85;;
25948;SDS011;13961;51.178;4.448;2023-02-03T09:30:28;7.80;;;1.98;;
25948;SDS011;13961;51.178;4.448;2023-02-03T09:32:54;5.47;;;2.05;;
25948;SDS011;13961;51.178;4.448;2023-02-03T09:35:20;7.22;;;1.80;;
25948;SDS011;13961;51.178;4.448;2023-02-03T09:37:46;3.55;;;1.73;;
25948;SDS011;13961;51.178;4.448;2023-02-03T09:40:17;6.25;;;1.65;;
25948;SDS011;13961;51.178;4.448;2023-02-03T09:43:26;5.72;;;1.67;;
25948;SDS011;13961;51.178;4.448;2023-02-03T09:45:58;5.93;;;1.58;;
25948;SDS011;13961;51.178;4.448;2023-02-03T09:48:33;5.13;;;1.75;;
25948;SDS011;13961;51.178;4.448;2023-02-03T09:51:07;5.75;;;1.70;;
25948;SDS011;13961;51.178;4.448;2023-02-03T09:53:44;5.30;;;2.10;;
25948;SDS011;13961;51.178;4.448;2023-02-03T09:56:22;8.13;;;1.85;;
25948;SDS011;13961;51.178;4.448;2023-02-03T09:58:59;7.72;;;1.70;;
25948;SDS011;13961;51.178;4.448;2023-02-03T10:01:33;5.32;;;2.00;;
25948;SDS011;13961;51.178;4.448;2023-02-03T10:04:21;5.57;;;2.20;;
25948;SDS011;13961;51.178;4.448;2023-02-03T10:06:57;3.00;;;1.42;;
25948;SDS011;13961;51.178;4.448;2023-02-03T10:09:40;3.55;;;1.30;;
25948;SDS011;13961;51.178;4.448;2023-02-03T10:17:46;8.95;;;1.48;;
25948;SDS011;13961;51.178;4.448;2023-02-03T10:20:18;7.47;;;1.65;;
25948;SDS011;13961;51.178;4.448;2023-02-03T10:23:00;5.35;;;1.50;;
25948;SDS011;13961;51.178;4.448;2023-02-03T10:25:33;7.40;;;1.30;;
25948;SDS011;13961;51.178;4.448;2023-02-03T10:28:08;4.38;;;0.98;;
25948;SDS011;13961;51.178;4.448;2023-02-03T10:30:44;7.55;;;1.40;;
25948;SDS011;13961;51.178;4.448;2023-02-03T10:33:15;7.07;;;1.42;;
25948;SDS011;13961;51.178;4.448;2023-02-03T10:35:48;4.10;;;1.05;;
25948;SDS011;13961;51.178;4.448;2023-02-03T10:38:31;6.85;;;1.20;;
25948;SDS011;13961;51.178;4.448;2023-02-03T10:41:01;3.88;;;1.13;;
25948;SDS011;13961;51.178;4.448;2023-02-03T10:43:28;4.43;;;1.30;;
25948;SDS011;13961;51.178;4.448;2023-02-03T10:46:14;6.50;;;0.90;;
25948;SDS011;13961;51.178;4.448;2023-02-03T10:48:41;6.97;;;1.48;;
25948;SDS011;13961;51.178;4.448;2023-02-03T10:53:44;4.72;;;1.17;;
25948;SDS011;13961;51.178;4.448;2023-02-03T10:56:13;5.45;;;1.05;;
25948;SDS011;13961;51.178;4.448;2023-02-03T10:58:46;4.05;;;1.25;;
25948;SDS011;13961;51.178;4.448;2023-02-03T11:01:45;3.10;;;0.95;;
25948;SDS011;13961;51.178;4.448;2023-02-03T11:04:27;6.28;;;1.23;;
25948;SDS011;13961;51.178;4.448;2023-02-03T11:07:00;4.40;;;0.80;;
25948;SDS011;13961;51.178;4.448;2023-02-03T11:12:13;2.25;;;0.95;;
25948;SDS011;13961;51.178;4.448;2023-02-03T11:14:45;7.10;;;1.38;;
25948;SDS011;13961;51.178;4.448;2023-02-03T11:17:16;5.18;;;1.17;;
25948;SDS011;13961;51.178;4.448;2023-02-03T11:19:52;9.45;;;1.58;;
25948;SDS011;13961;51.178;4.448;2023-02-03T11:25:00;5.22;;;1.27;;
25948;SDS011;13961;51.178;4.448;2023-02-03T11:27:28;1.50;;;1.05;;
25948;SDS011;13961;51.178;4.448;2023-02-03T11:30:06;4.97;;;1.55;;
25948;SDS011;13961;51.178;4.448;2023-02-03T11:32:39;5.13;;;1.00;;
25948;SDS011;13961;51.178;4.448;2023-02-03T11:35:16;5.43;;;1.38;;
25948;SDS011;13961;51.178;4.448;2023-02-03T11:37:48;6.35;;;1.48;;
25948;SDS011;13961;51.178;4.448;2023-02-03T11:40:25;10.43;;;1.35;;
25948;SDS011;13961;51.178;4.448;2023-02-03T11:45:25;5.25;;;1.15;;
25948;SDS011;13961;51.178;4.448;2023-02-03T11:47:53;3.03;;;1.17;;
25948;SDS011;13961;51.178;4.448;2023-02-03T11:50:29;5.35;;;1.27;;
25948;SDS011;13961;51.178;4.448;2023-02-03T11:53:21;5.20;;;1.38;;
25948;SDS011;13961;51.178;4.448;2023-02-03T11:55:52;4.70;;;1.20;;
25948;SDS011;13961;51.178;4.448;2023-02-03T12:04:36;5.85;;;1.25;;
25948;SDS011;13961;51.178;4.448;2023-02-03T12:12:54;2.60;;;1.10;;
25948;SDS011;13961;51.178;4.448;2023-02-03T12:15:35;5.97;;;1.63;;
25948;SDS011;13961;51.178;4.448;2023-02-03T12:21:11;7.50;;;1.60;;
25948;SDS011;13961;51.178;4.448;2023-02-03T12:26:21;3.55;;;1.25;;
25948;SDS011;13961;51.178;4.448;2023-02-03T12:31:37;3.17;;;1.38;;
25948;SDS011;13961;51.178;4.448;2023-02-03T12:36:39;7.47;;;1.08;;
25948;SDS011;13961;51.178;4.448;2023-02-03T12:39:18;5.65;;;1.17;;
25948;SDS011;13961;51.178;4.448;2023-02-03T12:41:58;4.57;;;1.58;;
25948;SDS011;13961;51.178;4.448;2023-02-03T12:44:30;4.03;;;1.27;;
25948;SDS011;13961;51.178;4.448;2023-02-03T12:49:59;4.30;;;1.30;;
25948;SDS011;13961;51.178;4.448;2023-02-03T12:58:17;2.90;;;1.15;;
25948;SDS011;13961;51.178;4.448;2023-02-03T13:09:19;7.38;;;1.70;;
25948;SDS011;13961;51.178;4.448;2023-02-03T13:11:55;5.50;;;1.30;;
25948;SDS011;13961;51.178;4.448;2023-02-03T13:14:36;9.77;;;2.10;;
25948;SDS011;13961;51.178;4.448;2023-02-03T13:17:07;4.38;;;1.50;;
25948;SDS011;13961;51.178;4.448;2023-02-03T13:19:51;4.85;;;1.25;;
25948;SDS011;13961;51.178;4.448;2023-02-03T13:22:26;5.43;;;1.50;;
25948;SDS011;13961;51.178;4.448;2023-02-03T13:24:53;4.80;;;1.40;;
25948;SDS011;13961;51.178;4.448;2023-02-03T13:30:18;6.15;;;1.60;;
25948;SDS011;13961;51.178;4.448;2023-02-03T13:35:51;7.18;;;1.58;;
25948;SDS011;13961;51.178;4.448;2023-02-03T13:38:26;6.88;;;1.48;;
25948;SDS011;13961;51.178;4.448;2023-02-03T13:41:25;5.93;;;1.52;;
25948;SDS011;13961;51.178;4.448;2023-02-03T13:43:55;4.45;;;1.30;;
25948;SDS011;13961;51.178;4.448;2023-02-03T13:46:40;3.25;;;1.25;;
25948;SDS011;13961;51.178;4.448;2023-02-03T13:49:06;5.32;;;1.60;;
25948;SDS011;13961;51.178;4.448;2023-02-03T13:51:35;6.93;;;1.55;;
25948;SDS011;13961;51.178;4.448;2023-02-03T13:54:11;4.57;;;1.17;;
25948;SDS011;13961;51.178;4.448;2023-02-03T13:56:59;5.50;;;1.70;;
25948;SDS011;13961;51.178;4.448;2023-02-03T14:02:28;5.65;;;1.10;;
25948;SDS011;13961;51.178;4.448;2023-02-03T14:04:55;4.93;;;1.27;;
25948;SDS011;13961;51.178;4.448;2023-02-03T14:07:40;5.47;;;1.33;;
25948;SDS011;13961;51.178;4.448;2023-02-03T14:12:37;3.20;;;1.45;;
25948;SDS011;13961;51.178;4.448;2023-02-03T14:17:55;3.33;;;1.35;;
25948;SDS011;13961;51.178;4.448;2023-02-03T14:28:12;9.05;;;1.40;;
25948;SDS011;13961;51.178;4.448;2023-02-03T14:34:10;4.22;;;1.63;;
25948;SDS011;13961;51.178;4.448;2023-02-03T14:36:28;4.95;;;1.55;;
25948;SDS011;13961;51.178;4.448;2023-02-03T14:39:00;2.63;;;1.30;;
25948;SDS011;13961;51.178;4.448;2023-02-03T14:44:36;2.95;;;1.13;;
25948;SDS011;13961;51.178;4.448;2023-02-03T14:47:13;2.90;;;1.38;;
25948;SDS011;13961;51.178;4.448;2023-02-03T14:50:20;5.47;;;1.30;;
25948;SDS011;13961;51.178;4.448;2023-02-03T14:53:14;4.70;;;1.63;;
25948;SDS011;13961;51.178;4.448;2023-02-03T14:56:09;4.97;;;1.17;;
25948;SDS011;13961;51.178;4.448;2023-02-03T14:58:48;4.10;;;1.40;;
25948;SDS011;13961;51.178;4.448;2023-02-03T15:06:38;5.18;;;1.55;;
25948;SDS011;13961;51.178;4.448;2023-02-03T15:09:11;3.75;;;1.52;;
25948;SDS011;13961;51.178;4.448;2023-02-03T15:11:48;3.55;;;1.27;;
25948;SDS011;13961;51.178;4.448;2023-02-03T15:14:18;4.90;;;1.50;;
25948;SDS011;13961;51.178;4.448;2023-02-03T15:16:55;5.18;;;1.75;;
25948;SDS011;13961;51.178;4.448;2023-02-03T15:19:37;4.38;;;1.58;;
25948;SDS011;13961;51.178;4.448;2023-02-03T15:22:27;3.60;;;1.35;;
25948;SDS011;13961;51.178;4.448;2023-02-03T15:24:58;3.50;;;1.25;;
25948;SDS011;13961;51.178;4.448;2023-02-03T15:27:26;4.50;;;1.67;;
25948;SDS011;13961;51.178;4.448;2023-02-03T15:29:53;3.67;;;1.42;;
25948;SDS011;13961;51.178;4.448;2023-02-03T15:32:24;2.20;;;1.23;;
25948;SDS011;13961;51.178;4.448;2023-02-03T15:34:54;4.82;;;1.70;;
25948;SDS011;13961;51.178;4.448;2023-02-03T15:37:26;6.05;;;1.80;;
25948;SDS011;13961;51.178;4.448;2023-02-03T15:39:59;4.88;;;1.77;;
25948;SDS011;13961;51.178;4.448;2023-02-03T15:42:30;5.95;;;1.40;;
25948;SDS011;13961;51.178;4.448;2023-02-03T15:47:37;3.72;;;1.50;;
25948;SDS011;13961;51.178;4.448;2023-02-03T15:50:16;4.22;;;1.38;;
25948;SDS011;13961;51.178;4.448;2023-02-03T15:52:48;4.03;;;2.10;;
25948;SDS011;13961;51.178;4.448;2023-02-03T15:55:27;4.57;;;1.70;;
25948;SDS011;13961;51.178;4.448;2023-02-03T15:58:17;4.72;;;1.63;;
25948;SDS011;13961;51.178;4.448;2023-02-03T16:00:48;6.95;;;2.17;;
25948;SDS011;13961;51.178;4.448;2023-02-03T16:03:18;5.35;;;1.75;;
25948;SDS011;13961;51.178;4.448;2023-02-03T16:05:47;4.82;;;1.70;;
25948;SDS011;13961;51.178;4.448;2023-02-03T16:11:22;7.05;;;1.95;;
25948;SDS011;13961;51.178;4.448;2023-02-03T16:13:54;5.47;;;1.95;;
25948;SDS011;13961;51.178;4.448;2023-02-03T16:16:21;5.18;;;2.22;;
25948;SDS011;13961;51.178;4.448;2023-02-03T16:19:02;6.63;;;2.28;;
25948;SDS011;13961;51.178;4.448;2023-02-03T16:29:53;6.95;;;1.92;;
25948;SDS011;13961;51.178;4.448;2023-02-03T16:32:59;9.50;;;1.80;;
25948;SDS011;13961;51.178;4.448;2023-02-03T16:35:53;7.20;;;2.10;;
25948;SDS011;13961;51.178;4.448;2023-02-03T16:38:42;15.65;;;3.67;;
25948;SDS011;13961;51.178;4.448;2023-02-03T16:41:27;7.75;;;2.35;;
25948;SDS011;13961;51.178;4.448;2023-02-03T16:44:13;5.72;;;2.35;;
25948;SDS011;13961;51.178;4.448;2023-02-03T16:46:57;7.95;;;2.70;;
25948;SDS011;13961;51.178;4.448;2023-02-03T16:49:41;7.95;;;2.78;;
25948;SDS011;13961;51.178;4.448;2023-02-03T16:52:25;10.25;;;3.45;;
25948;SDS011;13961;51.178;4.448;2023-02-03T16:54:51;8.68;;;3.55;;
25948;SDS011;13961;51.178;4.448;2023-02-03T16:57:16;9.45;;;3.63;;
25948;SDS011;13961;51.178;4.448;2023-02-03T16:59:42;3.67;;;2.30;;
25948;SDS011;13961;51.178;4.448;2023-02-03T17:02:08;10.32;;;3.80;;
25948;SDS011;13961;51.178;4.448;2023-02-03T17:04:35;6.20;;;2.72;;
25948;SDS011;13961;51.178;4.448;2023-02-03T17:07:00;8.85;;;3.22;;
25948;SDS011;13961;51.178;4.448;2023-02-03T17:09:29;10.30;;;2.90;;
25948;SDS011;13961;51.178;4.448;2023-02-03T17:12:02;10.50;;;2.85;;
25948;SDS011;13961;51.178;4.448;2023-02-03T17:14:28;13.70;;;2.90;;
25948;SDS011;13961;51.178;4.448;2023-02-03T17:16:55;12.95;;;4.05;;
25948;SDS011;13961;51.178;4.448;2023-02-03T17:19:20;10.35;;;3.25;;
25948;SDS011;13961;51.178;4.448;2023-02-03T17:21:46;15.32;;;3.42;;